Terminal Aerodrome Forecast
Issued by NWS

Current Version | Previous Version | Text Only | Print | Product List | Glossary Off
Versions: 1 2 3 4 5 6 7 8 9 10 11 12 13 14 15 16 17 18 19 20 21 22 23 24 25 26

277
FTUS41 KRLX 240929 AAA
TAFCKB
TAF AMD
KCKB 240929Z 2409/2506 00000KT P6SM SCT200
     FM241300 17004KT P6SM BKN080
     FM250000 17009G17KT P6SM SCT070=

USA.gov is the U.S. government's official web portal to all federal, state and local government web resources and services.